KABI

Abilene Regional Airport

Abilene, Texas, USA
METAR KABI 211252Z 20006KT 10SM CLR 26/16 A3003 RMK AO2 SLP135 T02610156
Observed Flight Rules
Jul-21 @ 12:52 UTC (an hour ago) Visual Flight Rules
Wind Visibility Clouds
200° at 6 knots 10 miles
  • Clear skies
Temperatures Readings
Current 26°C / 79°F
Dewpoint 16°C / 61°F
Humidity 54%
Altimeter 30.03" Hg
Pressure 1013.5 hPa
Elevation 548
METAR KABI 211252Z 20006KT 10SM CLR 26/16 A3003 RMK AO2 SLP135 T02610156
Observed Flight Rules
Jul-21 @ 12:52 UTC
(an hour ago)
VFR
Wind Visibility
200° at 6 knots 10 miles
Clouds
  • Clear skies
Temperature Dewpoint
26°C / 79°F 16°C / 61°F
Humidity Altimeter Pressure
54% 30.03" Hg 1013.5 hPa